sensor_id;sensor_type;location;lat;lon;timestamp;P1;durP1;ratioP1;P2;durP2;ratioP2
77016;SDS011;65949;53.132;17.930;2023-11-18T00:01:31;17.00;;;7.30;;
77016;SDS011;65949;53.132;17.930;2023-11-18T00:03:59;16.80;;;7.30;;
77016;SDS011;65949;53.132;17.930;2023-11-18T00:06:26;19.40;;;9.00;;
77016;SDS011;65949;53.132;17.930;2023-11-18T00:08:54;18.60;;;8.10;;
77016;SDS011;65949;53.132;17.930;2023-11-18T00:11:21;18.90;;;9.00;;
77016;SDS011;65949;53.132;17.930;2023-11-18T00:13:47;20.20;;;8.90;;
77016;SDS011;65949;53.132;17.930;2023-11-18T00:16:14;18.40;;;8.60;;
77016;SDS011;65949;53.132;17.930;2023-11-18T00:18:42;18.30;;;8.70;;
77016;SDS011;65949;53.132;17.930;2023-11-18T00:21:09;19.10;;;8.30;;
77016;SDS011;65949;53.132;17.930;2023-11-18T00:23:36;18.90;;;7.70;;
77016;SDS011;65949;53.132;17.930;2023-11-18T00:26:03;21.00;;;9.80;;
77016;SDS011;65949;53.132;17.930;2023-11-18T00:28:29;19.60;;;8.30;;
77016;SDS011;65949;53.132;17.930;2023-11-18T00:30:56;20.20;;;7.90;;
77016;SDS011;65949;53.132;17.930;2023-11-18T00:33:23;19.70;;;8.30;;
77016;SDS011;65949;53.132;17.930;2023-11-18T00:35:49;22.30;;;9.20;;
77016;SDS011;65949;53.132;17.930;2023-11-18T00:38:16;22.40;;;10.30;;
77016;SDS011;65949;53.132;17.930;2023-11-18T00:40:44;21.80;;;9.80;;
77016;SDS011;65949;53.132;17.930;2023-11-18T00:43:10;24.30;;;11.10;;
77016;SDS011;65949;53.132;17.930;2023-11-18T00:45:37;25.50;;;10.90;;
77016;SDS011;65949;53.132;17.930;2023-11-18T00:48:04;25.00;;;10.40;;
77016;SDS011;65949;53.132;17.930;2023-11-18T00:50:31;25.70;;;11.10;;
77016;SDS011;65949;53.132;17.930;2023-11-18T00:53:00;23.70;;;9.40;;
77016;SDS011;65949;53.132;17.930;2023-11-18T00:55:27;19.60;;;8.70;;
77016;SDS011;65949;53.132;17.930;2023-11-18T00:57:53;24.20;;;10.00;;
77016;SDS011;65949;53.132;17.930;2023-11-18T01:00:20;21.40;;;8.70;;
77016;SDS011;65949;53.132;17.930;2023-11-18T01:02:49;21.00;;;8.90;;
77016;SDS011;65949;53.132;17.930;2023-11-18T01:05:16;23.80;;;10.40;;
77016;SDS011;65949;53.132;17.930;2023-11-18T01:07:43;22.90;;;9.80;;
77016;SDS011;65949;53.132;17.930;2023-11-18T01:10:10;24.80;;;10.70;;
77016;SDS011;65949;53.132;17.930;2023-11-18T01:12:38;24.60;;;10.80;;
77016;SDS011;65949;53.132;17.930;2023-11-18T01:15:05;24.60;;;10.50;;
77016;SDS011;65949;53.132;17.930;2023-11-18T01:17:33;25.60;;;11.50;;
77016;SDS011;65949;53.132;17.930;2023-11-18T01:20:00;25.20;;;9.90;;
77016;SDS011;65949;53.132;17.930;2023-11-18T01:22:32;25.90;;;10.40;;
77016;SDS011;65949;53.132;17.930;2023-11-18T01:25:01;28.20;;;12.20;;
77016;SDS011;65949;53.132;17.930;2023-11-18T01:27:28;28.10;;;11.90;;
77016;SDS011;65949;53.132;17.930;2023-11-18T01:29:55;31.40;;;13.60;;
77016;SDS011;65949;53.132;17.930;2023-11-18T01:32:22;32.30;;;13.30;;
77016;SDS011;65949;53.132;17.930;2023-11-18T01:34:48;27.20;;;12.60;;
77016;SDS011;65949;53.132;17.930;2023-11-18T01:37:16;33.70;;;13.50;;
77016;SDS011;65949;53.132;17.930;2023-11-18T01:39:43;29.00;;;11.90;;
77016;SDS011;65949;53.132;17.930;2023-11-18T01:42:10;31.60;;;13.50;;
77016;SDS011;65949;53.132;17.930;2023-11-18T01:44:38;33.70;;;13.60;;
77016;SDS011;65949;53.132;17.930;2023-11-18T01:47:04;30.80;;;13.50;;
77016;SDS011;65949;53.132;17.930;2023-11-18T01:49:36;27.20;;;11.00;;
77016;SDS011;65949;53.132;17.930;2023-11-18T01:52:06;27.30;;;11.80;;
77016;SDS011;65949;53.132;17.930;2023-11-18T01:57:44;29.40;;;11.90;;
77016;SDS011;65949;53.132;17.930;2023-11-18T02:00:12;29.10;;;12.10;;
77016;SDS011;65949;53.132;17.930;2023-11-18T02:02:43;26.20;;;11.30;;
77016;SDS011;65949;53.132;17.930;2023-11-18T02:05:10;28.50;;;11.80;;
77016;SDS011;65949;53.132;17.930;2023-11-18T02:07:39;30.80;;;13.20;;
77016;SDS011;65949;53.132;17.930;2023-11-18T02:10:07;31.60;;;12.80;;
77016;SDS011;65949;53.132;17.930;2023-11-18T02:12:43;27.60;;;11.60;;
77016;SDS011;65949;53.132;17.930;2023-11-18T02:15:17;32.80;;;13.10;;
77016;SDS011;65949;53.132;17.930;2023-11-18T02:17:47;30.90;;;12.60;;
77016;SDS011;65949;53.132;17.930;2023-11-18T02:20:16;32.50;;;13.40;;
77016;SDS011;65949;53.132;17.930;2023-11-18T02:22:47;32.00;;;12.40;;
77016;SDS011;65949;53.132;17.930;2023-11-18T02:25:15;30.70;;;11.90;;
77016;SDS011;65949;53.132;17.930;2023-11-18T02:27:42;28.70;;;11.70;;
77016;SDS011;65949;53.132;17.930;2023-11-18T02:30:10;36.50;;;14.20;;
77016;SDS011;65949;53.132;17.930;2023-11-18T02:35:09;32.00;;;12.40;;
77016;SDS011;65949;53.132;17.930;2023-11-18T02:37:54;28.20;;;12.10;;
77016;SDS011;65949;53.132;17.930;2023-11-18T02:40:30;34.90;;;14.50;;
77016;SDS011;65949;53.132;17.930;2023-11-18T02:42:59;29.40;;;12.70;;
77016;SDS011;65949;53.132;17.930;2023-11-18T02:45:27;33.60;;;12.70;;
77016;SDS011;65949;53.132;17.930;2023-11-18T02:47:54;35.50;;;14.80;;
77016;SDS011;65949;53.132;17.930;2023-11-18T02:50:27;35.90;;;14.60;;
77016;SDS011;65949;53.132;17.930;2023-11-18T02:52:53;33.10;;;13.10;;
77016;SDS011;65949;53.132;17.930;2023-11-18T02:55:20;32.40;;;13.40;;
77016;SDS011;65949;53.132;17.930;2023-11-18T02:57:48;31.90;;;13.50;;
77016;SDS011;65949;53.132;17.930;2023-11-18T03:00:18;33.80;;;14.10;;
77016;SDS011;65949;53.132;17.930;2023-11-18T03:02:48;33.90;;;13.70;;
77016;SDS011;65949;53.132;17.930;2023-11-18T03:05:16;32.10;;;13.80;;
77016;SDS011;65949;53.132;17.930;2023-11-18T03:07:44;33.30;;;13.30;;
77016;SDS011;65949;53.132;17.930;2023-11-18T03:10:16;31.60;;;13.10;;
77016;SDS011;65949;53.132;17.930;2023-11-18T03:12:52;29.70;;;11.30;;
77016;SDS011;65949;53.132;17.930;2023-11-18T03:15:21;25.20;;;9.30;;
77016;SDS011;65949;53.132;17.930;2023-11-18T03:17:48;27.20;;;11.40;;
77016;SDS011;65949;53.132;17.930;2023-11-18T03:20:16;27.40;;;11.30;;
77016;SDS011;65949;53.132;17.930;2023-11-18T03:22:44;29.70;;;12.70;;
77016;SDS011;65949;53.132;17.930;2023-11-18T03:25:15;32.20;;;13.20;;
77016;SDS011;65949;53.132;17.930;2023-11-18T03:27:43;29.20;;;11.80;;
77016;SDS011;65949;53.132;17.930;2023-11-18T03:30:11;30.40;;;12.70;;
77016;SDS011;65949;53.132;17.930;2023-11-18T03:32:38;31.00;;;12.10;;
77016;SDS011;65949;53.132;17.930;2023-11-18T03:35:06;30.60;;;12.10;;
77016;SDS011;65949;53.132;17.930;2023-11-18T03:37:35;35.00;;;13.80;;
77016;SDS011;65949;53.132;17.930;2023-11-18T03:40:05;32.40;;;13.00;;
77016;SDS011;65949;53.132;17.930;2023-11-18T03:42:37;35.60;;;15.70;;
77016;SDS011;65949;53.132;17.930;2023-11-18T03:45:04;33.00;;;14.50;;
77016;SDS011;65949;53.132;17.930;2023-11-18T03:47:31;29.80;;;13.70;;
77016;SDS011;65949;53.132;17.930;2023-11-18T03:50:00;28.60;;;13.30;;
77016;SDS011;65949;53.132;17.930;2023-11-18T03:52:26;30.10;;;13.40;;
77016;SDS011;65949;53.132;17.930;2023-11-18T03:54:54;31.80;;;13.80;;
77016;SDS011;65949;53.132;17.930;2023-11-18T03:57:24;31.20;;;12.60;;
77016;SDS011;65949;53.132;17.930;2023-11-18T03:59:50;23.90;;;10.80;;
77016;SDS011;65949;53.132;17.930;2023-11-18T04:02:17;30.30;;;11.80;;
77016;SDS011;65949;53.132;17.930;2023-11-18T04:04:43;30.20;;;12.70;;
77016;SDS011;65949;53.132;17.930;2023-11-18T04:07:10;31.70;;;12.80;;
77016;SDS011;65949;53.132;17.930;2023-11-18T04:09:37;32.80;;;14.30;;
77016;SDS011;65949;53.132;17.930;2023-11-18T04:12:03;30.30;;;13.20;;
77016;SDS011;65949;53.132;17.930;2023-11-18T04:14:31;29.40;;;12.80;;
77016;SDS011;65949;53.132;17.930;2023-11-18T04:16:58;30.10;;;13.30;;
77016;SDS011;65949;53.132;17.930;2023-11-18T04:19:24;28.10;;;11.40;;
77016;SDS011;65949;53.132;17.930;2023-11-18T04:21:52;28.70;;;12.10;;
77016;SDS011;65949;53.132;17.930;2023-11-18T04:24:18;27.20;;;11.90;;
77016;SDS011;65949;53.132;17.930;2023-11-18T04:26:45;32.00;;;13.80;;
77016;SDS011;65949;53.132;17.930;2023-11-18T04:29:14;29.30;;;12.30;;
77016;SDS011;65949;53.132;17.930;2023-11-18T04:31:41;35.20;;;15.60;;
77016;SDS011;65949;53.132;17.930;2023-11-18T04:34:08;27.30;;;12.70;;
77016;SDS011;65949;53.132;17.930;2023-11-18T04:36:34;31.70;;;14.70;;
77016;SDS011;65949;53.132;17.930;2023-11-18T04:39:01;30.40;;;12.70;;
77016;SDS011;65949;53.132;17.930;2023-11-18T04:41:29;31.00;;;13.70;;
77016;SDS011;65949;53.132;17.930;2023-11-18T04:43:58;32.20;;;13.90;;
77016;SDS011;65949;53.132;17.930;2023-11-18T04:46:24;31.20;;;13.40;;
77016;SDS011;65949;53.132;17.930;2023-11-18T04:48:52;25.30;;;11.40;;
77016;SDS011;65949;53.132;17.930;2023-11-18T04:51:21;26.60;;;12.20;;
77016;SDS011;65949;53.132;17.930;2023-11-18T04:53:48;29.10;;;12.40;;
77016;SDS011;65949;53.132;17.930;2023-11-18T04:56:15;26.40;;;11.00;;
77016;SDS011;65949;53.132;17.930;2023-11-18T04:58:44;27.10;;;12.50;;
77016;SDS011;65949;53.132;17.930;2023-11-18T05:01:14;29.90;;;12.50;;
77016;SDS011;65949;53.132;17.930;2023-11-18T05:03:40;26.40;;;11.70;;
77016;SDS011;65949;53.132;17.930;2023-11-18T05:06:07;24.10;;;11.20;;
77016;SDS011;65949;53.132;17.930;2023-11-18T05:08:34;27.10;;;11.70;;
77016;SDS011;65949;53.132;17.930;2023-11-18T05:11:02;31.30;;;14.40;;
77016;SDS011;65949;53.132;17.930;2023-11-18T05:13:31;28.40;;;12.60;;
77016;SDS011;65949;53.132;17.930;2023-11-18T05:15:58;34.90;;;14.10;;
77016;SDS011;65949;53.132;17.930;2023-11-18T05:18:25;32.70;;;14.10;;
77016;SDS011;65949;53.132;17.930;2023-11-18T05:20:55;29.10;;;12.40;;
77016;SDS011;65949;53.132;17.930;2023-11-18T05:23:23;32.60;;;13.90;;
77016;SDS011;65949;53.132;17.930;2023-11-18T05:25:50;31.50;;;14.10;;
77016;SDS011;65949;53.132;17.930;2023-11-18T05:28:17;29.20;;;12.10;;
77016;SDS011;65949;53.132;17.930;2023-11-18T05:30:43;29.60;;;12.80;;
77016;SDS011;65949;53.132;17.930;2023-11-18T05:33:10;33.30;;;14.00;;
77016;SDS011;65949;53.132;17.930;2023-11-18T05:35:43;32.70;;;13.20;;
77016;SDS011;65949;53.132;17.930;2023-11-18T05:38:17;29.40;;;12.10;;
77016;SDS011;65949;53.132;17.930;2023-11-18T05:40:48;29.00;;;12.30;;
77016;SDS011;65949;53.132;17.930;2023-11-18T05:43:26;29.70;;;11.90;;
77016;SDS011;65949;53.132;17.930;2023-11-18T05:46:03;28.90;;;11.30;;
77016;SDS011;65949;53.132;17.930;2023-11-18T05:48:49;26.00;;;11.10;;
77016;SDS011;65949;53.132;17.930;2023-11-18T05:51:22;26.80;;;11.30;;
77016;SDS011;65949;53.132;17.930;2023-11-18T05:53:50;29.80;;;13.00;;
77016;SDS011;65949;53.132;17.930;2023-11-18T05:56:18;24.60;;;10.80;;
77016;SDS011;65949;53.132;17.930;2023-11-18T05:58:46;27.50;;;11.80;;
77016;SDS011;65949;53.132;17.930;2023-11-18T06:01:13;26.20;;;11.80;;
77016;SDS011;65949;53.132;17.930;2023-11-18T06:03:41;26.40;;;11.20;;
77016;SDS011;65949;53.132;17.930;2023-11-18T06:06:09;26.40;;;11.20;;
77016;SDS011;65949;53.132;17.930;2023-11-18T06:08:37;25.10;;;10.20;;
77016;SDS011;65949;53.132;17.930;2023-11-18T06:11:08;27.30;;;10.60;;
77016;SDS011;65949;53.132;17.930;2023-11-18T06:16:13;59.60;;;18.60;;
77016;SDS011;65949;53.132;17.930;2023-11-18T06:18:41;30.20;;;11.80;;
77016;SDS011;65949;53.132;17.930;2023-11-18T06:21:11;212.40;;;39.30;;
77016;SDS011;65949;53.132;17.930;2023-11-18T06:23:39;94.70;;;24.20;;
77016;SDS011;65949;53.132;17.930;2023-11-18T06:26:06;31.00;;;12.80;;
77016;SDS011;65949;53.132;17.930;2023-11-18T06:28:34;30.70;;;12.40;;
77016;SDS011;65949;53.132;17.930;2023-11-18T06:31:01;28.20;;;12.30;;
77016;SDS011;65949;53.132;17.930;2023-11-18T06:33:27;27.50;;;12.10;;
77016;SDS011;65949;53.132;17.930;2023-11-18T06:35:54;28.60;;;11.70;;
77016;SDS011;65949;53.132;17.930;2023-11-18T06:38:22;26.50;;;11.80;;
77016;SDS011;65949;53.132;17.930;2023-11-18T06:40:49;27.50;;;11.80;;
77016;SDS011;65949;53.132;17.930;2023-11-18T06:43:19;26.70;;;12.20;;
77016;SDS011;65949;53.132;17.930;2023-11-18T06:45:45;27.60;;;11.80;;
77016;SDS011;65949;53.132;17.930;2023-11-18T06:48:15;25.60;;;10.60;;
77016;SDS011;65949;53.132;17.930;2023-11-18T06:50:41;25.60;;;11.30;;
77016;SDS011;65949;53.132;17.930;2023-11-18T06:53:10;25.70;;;11.50;;
77016;SDS011;65949;53.132;17.930;2023-11-18T06:55:38;26.00;;;11.80;;
77016;SDS011;65949;53.132;17.930;2023-11-18T06:58:04;28.70;;;12.40;;
77016;SDS011;65949;53.132;17.930;2023-11-18T07:00:31;26.90;;;10.80;;
77016;SDS011;65949;53.132;17.930;2023-11-18T07:02:57;27.90;;;11.60;;
77016;SDS011;65949;53.132;17.930;2023-11-18T07:05:24;26.00;;;10.70;;
77016;SDS011;65949;53.132;17.930;2023-11-18T07:07:50;21.90;;;9.70;;
77016;SDS011;65949;53.132;17.930;2023-11-18T07:10:17;23.40;;;9.70;;
77016;SDS011;65949;53.132;17.930;2023-11-18T07:12:47;26.50;;;10.80;;
77016;SDS011;65949;53.132;17.930;2023-11-18T07:15:16;26.10;;;10.40;;
77016;SDS011;65949;53.132;17.930;2023-11-18T07:17:43;31.00;;;11.10;;
77016;SDS011;65949;53.132;17.930;2023-11-18T07:20:10;24.40;;;10.70;;
77016;SDS011;65949;53.132;17.930;2023-11-18T07:22:39;27.70;;;10.60;;
77016;SDS011;65949;53.132;17.930;2023-11-18T07:25:06;29.60;;;10.50;;
77016;SDS011;65949;53.132;17.930;2023-11-18T07:27:35;32.30;;;11.60;;
77016;SDS011;65949;53.132;17.930;2023-11-18T07:30:02;36.40;;;13.00;;
77016;SDS011;65949;53.132;17.930;2023-11-18T07:32:32;35.90;;;11.20;;
77016;SDS011;65949;53.132;17.930;2023-11-18T07:35:00;33.40;;;12.10;;
77016;SDS011;65949;53.132;17.930;2023-11-18T07:37:26;42.70;;;14.80;;
77016;SDS011;65949;53.132;17.930;2023-11-18T07:39:53;37.70;;;14.20;;
77016;SDS011;65949;53.132;17.930;2023-11-18T07:42:21;33.30;;;12.40;;
77016;SDS011;65949;53.132;17.930;2023-11-18T07:44:50;33.80;;;12.90;;
77016;SDS011;65949;53.132;17.930;2023-11-18T07:47:16;28.40;;;11.60;;
77016;SDS011;65949;53.132;17.930;2023-11-18T07:49:43;28.00;;;11.10;;
77016;SDS011;65949;53.132;17.930;2023-11-18T07:52:11;30.70;;;11.40;;
77016;SDS011;65949;53.132;17.930;2023-11-18T07:54:38;25.30;;;10.70;;
77016;SDS011;65949;53.132;17.930;2023-11-18T07:57:04;27.20;;;11.50;;
77016;SDS011;65949;53.132;17.930;2023-11-18T07:59:36;28.50;;;11.60;;
77016;SDS011;65949;53.132;17.930;2023-11-18T08:02:03;27.20;;;11.60;;
77016;SDS011;65949;53.132;17.930;2023-11-18T08:04:35;26.20;;;10.50;;
77016;SDS011;65949;53.132;17.930;2023-11-18T08:07:02;32.10;;;13.10;;
77016;SDS011;65949;53.132;17.930;2023-11-18T08:09:30;24.70;;;9.20;;
77016;SDS011;65949;53.132;17.930;2023-11-18T08:11:58;29.50;;;12.10;;
77016;SDS011;65949;53.132;17.930;2023-11-18T08:14:24;24.10;;;10.30;;
77016;SDS011;65949;53.132;17.930;2023-11-18T08:16:51;28.40;;;10.70;;
77016;SDS011;65949;53.132;17.930;2023-11-18T08:19:19;25.60;;;10.20;;
77016;SDS011;65949;53.132;17.930;2023-11-18T08:21:45;23.30;;;10.30;;
77016;SDS011;65949;53.132;17.930;2023-11-18T08:24:12;24.40;;;10.20;;
77016;SDS011;65949;53.132;17.930;2023-11-18T08:26:39;21.40;;;8.50;;
77016;SDS011;65949;53.132;17.930;2023-11-18T08:29:05;22.20;;;9.30;;
77016;SDS011;65949;53.132;17.930;2023-11-18T08:31:33;23.50;;;10.30;;
77016;SDS011;65949;53.132;17.930;2023-11-18T08:33:59;25.30;;;11.20;;
77016;SDS011;65949;53.132;17.930;2023-11-18T08:36:27;21.10;;;9.00;;
77016;SDS011;65949;53.132;17.930;2023-11-18T08:38:54;26.30;;;10.20;;
77016;SDS011;65949;53.132;17.930;2023-11-18T08:41:22;24.70;;;9.20;;
77016;SDS011;65949;53.132;17.930;2023-11-18T08:43:49;27.70;;;12.20;;
77016;SDS011;65949;53.132;17.930;2023-11-18T08:46:15;40.10;;;14.80;;
77016;SDS011;65949;53.132;17.930;2023-11-18T08:48:42;33.70;;;13.00;;
77016;SDS011;65949;53.132;17.930;2023-11-18T08:51:10;25.70;;;9.60;;
77016;SDS011;65949;53.132;17.930;2023-11-18T08:53:38;29.10;;;11.30;;
77016;SDS011;65949;53.132;17.930;2023-11-18T08:56:08;26.60;;;10.60;;
77016;SDS011;65949;53.132;17.930;2023-11-18T08:58:41;27.50;;;10.50;;
77016;SDS011;65949;53.132;17.930;2023-11-18T09:01:08;25.10;;;8.90;;
77016;SDS011;65949;53.132;17.930;2023-11-18T09:03:41;25.60;;;10.40;;
77016;SDS011;65949;53.132;17.930;2023-11-18T09:06:10;23.40;;;9.70;;
77016;SDS011;65949;53.132;17.930;2023-11-18T09:08:51;22.90;;;9.40;;
77016;SDS011;65949;53.132;17.930;2023-11-18T09:11:22;22.30;;;9.50;;
77016;SDS011;65949;53.132;17.930;2023-11-18T09:13:50;27.60;;;10.90;;
77016;SDS011;65949;53.132;17.930;2023-11-18T09:16:20;24.20;;;10.30;;
77016;SDS011;65949;53.132;17.930;2023-11-18T09:18:49;23.90;;;10.60;;
77016;SDS011;65949;53.132;17.930;2023-11-18T09:21:17;24.30;;;11.20;;
77016;SDS011;65949;53.132;17.930;2023-11-18T09:23:49;22.50;;;10.60;;
77016;SDS011;65949;53.132;17.930;2023-11-18T09:26:16;24.80;;;10.70;;
77016;SDS011;65949;53.132;17.930;2023-11-18T09:28:43;25.30;;;10.80;;
77016;SDS011;65949;53.132;17.930;2023-11-18T09:31:13;20.40;;;9.80;;
77016;SDS011;65949;53.132;17.930;2023-11-18T09:33:40;21.30;;;9.10;;
77016;SDS011;65949;53.132;17.930;2023-11-18T09:36:13;25.70;;;11.70;;
77016;SDS011;65949;53.132;17.930;2023-11-18T09:38:40;24.80;;;10.60;;
77016;SDS011;65949;53.132;17.930;2023-11-18T09:41:08;27.50;;;11.80;;
77016;SDS011;65949;53.132;17.930;2023-11-18T09:43:41;18.40;;;8.40;;
77016;SDS011;65949;53.132;17.930;2023-11-18T09:46:15;19.30;;;8.60;;
77016;SDS011;65949;53.132;17.930;2023-11-18T09:51:23;22.50;;;10.30;;
77016;SDS011;65949;53.132;17.930;2023-11-18T09:53:51;16.90;;;8.20;;
77016;SDS011;65949;53.132;17.930;2023-11-18T09:56:23;19.90;;;9.20;;
77016;SDS011;65949;53.132;17.930;2023-11-18T09:59:25;18.70;;;8.70;;
77016;SDS011;65949;53.132;17.930;2023-11-18T10:02:02;17.20;;;8.50;;
77016;SDS011;65949;53.132;17.930;2023-11-18T10:04:39;18.20;;;8.70;;
77016;SDS011;65949;53.132;17.930;2023-11-18T10:07:06;21.70;;;9.10;;
77016;SDS011;65949;53.132;17.930;2023-11-18T10:09:37;20.00;;;9.00;;
77016;SDS011;65949;53.132;17.930;2023-11-18T10:12:08;27.30;;;12.70;;
77016;SDS011;65949;53.132;17.930;2023-11-18T10:14:40;25.80;;;11.90;;
77016;SDS011;65949;53.132;17.930;2023-11-18T10:17:09;18.80;;;8.70;;
77016;SDS011;65949;53.132;17.930;2023-11-18T10:19:53;18.90;;;8.40;;
77016;SDS011;65949;53.132;17.930;2023-11-18T10:22:27;28.10;;;13.60;;
77016;SDS011;65949;53.132;17.930;2023-11-18T10:24:56;28.10;;;11.70;;
77016;SDS011;65949;53.132;17.930;2023-11-18T10:27:23;20.40;;;8.20;;
77016;SDS011;65949;53.132;17.930;2023-11-18T10:29:57;22.70;;;9.40;;
77016;SDS011;65949;53.132;17.930;2023-11-18T10:32:28;24.80;;;9.70;;
77016;SDS011;65949;53.132;17.930;2023-11-18T10:34:58;25.30;;;10.50;;
77016;SDS011;65949;53.132;17.930;2023-11-18T10:37:25;15.20;;;6.90;;
77016;SDS011;65949;53.132;17.930;2023-11-18T10:39:52;13.00;;;6.80;;
77016;SDS011;65949;53.132;17.930;2023-11-18T10:42:19;14.60;;;6.60;;
77016;SDS011;65949;53.132;17.930;2023-11-18T10:44:55;14.10;;;6.60;;
77016;SDS011;65949;53.132;17.930;2023-11-18T10:47:27;13.10;;;5.90;;
77016;SDS011;65949;53.132;17.930;2023-11-18T10:49:55;15.00;;;6.80;;
77016;SDS011;65949;53.132;17.930;2023-11-18T10:52:22;14.10;;;6.00;;
77016;SDS011;65949;53.132;17.930;2023-11-18T10:54:50;15.00;;;7.40;;
77016;SDS011;65949;53.132;17.930;2023-11-18T10:57:20;18.60;;;8.00;;
77016;SDS011;65949;53.132;17.930;2023-11-18T11:00:00;13.70;;;6.40;;
77016;SDS011;65949;53.132;17.930;2023-11-18T11:02:30;16.30;;;6.90;;
77016;SDS011;65949;53.132;17.930;2023-11-18T11:05:02;12.90;;;6.30;;
77016;SDS011;65949;53.132;17.930;2023-11-18T11:07:29;13.70;;;6.70;;
77016;SDS011;65949;53.132;17.930;2023-11-18T11:10:01;12.80;;;5.50;;
77016;SDS011;65949;53.132;17.930;2023-11-18T11:12:33;12.10;;;5.80;;
77016;SDS011;65949;53.132;17.930;2023-11-18T11:15:20;14.30;;;5.70;;
77016;SDS011;65949;53.132;17.930;2023-11-18T11:17:52;13.70;;;5.40;;
77016;SDS011;65949;53.132;17.930;2023-11-18T11:20:22;11.10;;;4.90;;
77016;SDS011;65949;53.132;17.930;2023-11-18T11:22:59;13.70;;;6.00;;
77016;SDS011;65949;53.132;17.930;2023-11-18T11:30:58;14.30;;;6.30;;
77016;SDS011;65949;53.132;17.930;2023-11-18T11:33:43;23.00;;;7.00;;
77016;SDS011;65949;53.132;17.930;2023-11-18T11:36:20;14.40;;;5.60;;
77016;SDS011;65949;53.132;17.930;2023-11-18T11:38:53;11.30;;;4.70;;
77016;SDS011;65949;53.132;17.930;2023-11-18T11:41:23;12.30;;;5.30;;
77016;SDS011;65949;53.132;17.930;2023-11-18T11:43:54;13.00;;;5.30;;
77016;SDS011;65949;53.132;17.930;2023-11-18T11:46:22;12.30;;;5.00;;
77016;SDS011;65949;53.132;17.930;2023-11-18T11:48:50;11.10;;;4.90;;
77016;SDS011;65949;53.132;17.930;2023-11-18T11:51:26;11.80;;;5.00;;
77016;SDS011;65949;53.132;17.930;2023-11-18T11:54:00;12.20;;;5.30;;
77016;SDS011;65949;53.132;17.930;2023-11-18T11:56:44;12.20;;;5.50;;
77016;SDS011;65949;53.132;17.930;2023-11-18T12:02:23;13.00;;;5.70;;
77016;SDS011;65949;53.132;17.930;2023-11-18T12:04:56;13.70;;;6.50;;
77016;SDS011;65949;53.132;17.930;2023-11-18T12:07:25;12.50;;;6.00;;
77016;SDS011;65949;53.132;17.930;2023-11-18T12:09:58;14.10;;;5.80;;
77016;SDS011;65949;53.132;17.930;2023-11-18T12:12:27;11.70;;;6.10;;
77016;SDS011;65949;53.132;17.930;2023-11-18T12:14:54;12.10;;;5.20;;
77016;SDS011;65949;53.132;17.930;2023-11-18T12:17:22;10.90;;;5.00;;
77016;SDS011;65949;53.132;17.930;2023-11-18T12:19:52;15.20;;;5.40;;
77016;SDS011;65949;53.132;17.930;2023-11-18T12:22:25;11.80;;;6.10;;
77016;SDS011;65949;53.132;17.930;2023-11-18T12:38:37;17.70;;;6.80;;
77016;SDS011;65949;53.132;17.930;2023-11-18T12:41:36;14.00;;;6.00;;
77016;SDS011;65949;53.132;17.930;2023-11-18T12:47:01;12.90;;;5.40;;
77016;SDS011;65949;53.132;17.930;2023-11-18T12:49:41;12.60;;;5.80;;
77016;SDS011;65949;53.132;17.930;2023-11-18T12:52:09;15.80;;;8.00;;
77016;SDS011;65949;53.132;17.930;2023-11-18T12:54:41;15.10;;;6.00;;
77016;SDS011;65949;53.132;17.930;2023-11-18T12:57:10;12.60;;;5.20;;
77016;SDS011;65949;53.132;17.930;2023-11-18T12:59:40;15.90;;;6.60;;
77016;SDS011;65949;53.132;17.930;2023-11-18T13:02:08;15.50;;;7.10;;
77016;SDS011;65949;53.132;17.930;2023-11-18T13:04:42;13.00;;;5.30;;
77016;SDS011;65949;53.132;17.930;2023-11-18T13:07:08;15.40;;;5.70;;
77016;SDS011;65949;53.132;17.930;2023-11-18T13:09:35;15.30;;;6.80;;
77016;SDS011;65949;53.132;17.930;2023-11-18T13:12:02;15.20;;;6.50;;
77016;SDS011;65949;53.132;17.930;2023-11-18T13:14:35;15.10;;;7.00;;
77016;SDS011;65949;53.132;17.930;2023-11-18T13:17:03;16.70;;;7.10;;
77016;SDS011;65949;53.132;17.930;2023-11-18T13:19:35;13.60;;;7.00;;
77016;SDS011;65949;53.132;17.930;2023-11-18T13:22:02;15.50;;;7.20;;
77016;SDS011;65949;53.132;17.930;2023-11-18T13:24:30;16.00;;;6.70;;
77016;SDS011;65949;53.132;17.930;2023-11-18T13:26:57;17.00;;;7.40;;
77016;SDS011;65949;53.132;17.930;2023-11-18T13:29:30;17.90;;;8.20;;
77016;SDS011;65949;53.132;17.930;2023-11-18T13:32:05;19.80;;;8.50;;
77016;SDS011;65949;53.132;17.930;2023-11-18T13:34:36;18.90;;;8.30;;
77016;SDS011;65949;53.132;17.930;2023-11-18T13:37:05;15.90;;;7.30;;
77016;SDS011;65949;53.132;17.930;2023-11-18T13:39:33;17.00;;;8.50;;
77016;SDS011;65949;53.132;17.930;2023-11-18T13:44:50;16.20;;;7.30;;
77016;SDS011;65949;53.132;17.930;2023-11-18T13:47:21;14.80;;;7.20;;
77016;SDS011;65949;53.132;17.930;2023-11-18T13:49:54;16.70;;;7.70;;
77016;SDS011;65949;53.132;17.930;2023-11-18T13:52:21;15.20;;;7.50;;
77016;SDS011;65949;53.132;17.930;2023-11-18T13:54:49;19.10;;;7.90;;
77016;SDS011;65949;53.132;17.930;2023-11-18T13:57:21;20.00;;;9.10;;
77016;SDS011;65949;53.132;17.930;2023-11-18T13:59:49;20.50;;;8.70;;
77016;SDS011;65949;53.132;17.930;2023-11-18T14:02:16;19.50;;;9.10;;
77016;SDS011;65949;53.132;17.930;2023-11-18T14:04:43;20.30;;;10.50;;
77016;SDS011;65949;53.132;17.930;2023-11-18T14:07:14;21.70;;;10.80;;
77016;SDS011;65949;53.132;17.930;2023-11-18T14:09:43;20.20;;;9.60;;
77016;SDS011;65949;53.132;17.930;2023-11-18T14:12:12;27.50;;;12.20;;
77016;SDS011;65949;53.132;17.930;2023-11-18T14:14:40;23.20;;;10.10;;
77016;SDS011;65949;53.132;17.930;2023-11-18T14:17:06;24.20;;;11.40;;
77016;SDS011;65949;53.132;17.930;2023-11-18T14:19:36;22.00;;;9.50;;
77016;SDS011;65949;53.132;17.930;2023-11-18T14:22:04;19.60;;;9.80;;
77016;SDS011;65949;53.132;17.930;2023-11-18T14:24:35;19.80;;;9.00;;
77016;SDS011;65949;53.132;17.930;2023-11-18T14:27:02;26.50;;;10.80;;
77016;SDS011;65949;53.132;17.930;2023-11-18T14:29:30;28.90;;;12.20;;
77016;SDS011;65949;53.132;17.930;2023-11-18T14:31:57;28.30;;;13.70;;
77016;SDS011;65949;53.132;17.930;2023-11-18T14:34:24;32.00;;;14.00;;
77016;SDS011;65949;53.132;17.930;2023-11-18T14:36:52;29.70;;;14.20;;
77016;SDS011;65949;53.132;17.930;2023-11-18T14:39:18;42.40;;;19.80;;
77016;SDS011;65949;53.132;17.930;2023-11-18T14:41:48;41.80;;;19.80;;
77016;SDS011;65949;53.132;17.930;2023-11-18T14:44:16;41.60;;;19.60;;
77016;SDS011;65949;53.132;17.930;2023-11-18T14:46:44;44.60;;;21.90;;
77016;SDS011;65949;53.132;17.930;2023-11-18T14:49:12;49.60;;;21.90;;
77016;SDS011;65949;53.132;17.930;2023-11-18T14:51:38;41.80;;;20.40;;
77016;SDS011;65949;53.132;17.930;2023-11-18T14:54:06;34.50;;;17.00;;
77016;SDS011;65949;53.132;17.930;2023-11-18T14:56:33;37.90;;;16.50;;
77016;SDS011;65949;53.132;17.930;2023-11-18T14:59:01;30.30;;;14.10;;
77016;SDS011;65949;53.132;17.930;2023-11-18T15:01:27;29.00;;;14.20;;
77016;SDS011;65949;53.132;17.930;2023-11-18T15:03:55;24.00;;;11.20;;